Share

Key West, FL

Big Coppitt Key Gulfside (KFLKEYWE18) Elev 31 ft | 24.60 °N, 81.67 °W | Change Station

Current weather conditions updated 3 minutes ago

Mostly Cloudy
Mostly Cloudy
72.7 °F
Feels Like 75 °F
N
8.9
Wind Variable Wind from East
Sunrise 7:00 AM
Sunset 7:51 PM
Moon Waning Gibbous

Today is forecast to be Cooler than yesterday.

Pressure 29.99 in
Visibility 10.0 miles
Clouds Mostly Cloudy 3500 ft
Heat Index 75 °F
Dew Point 63 °F
Humidity 71%
Rainfall 0.00 in
Snow Depth Not available.
UV 0 out of 16
Pollen 6.20 out of 12
Air Quality Not available.
Flu Activity Sporadic
METAR KEYW 200853Z AUTO 32009KT 10SM BKN035 22/17 A2999 RMK AO2 SLP156 T02220167 56012

More Conditions Fewer Conditions

Pressure 29.99 in
Visibility 10.0 miles
Clouds Mostly Cloudy 3500 ft
Heat Index 75 °F
Dew Point 63 °F
Humidity 71%
Rainfall 0.00 in
Snow Depth Not available.
UV 0 out of 16
Pollen 6.20 out of 12
Air Quality Not available.
Flu Activity Sporadic
METAR KEYW 200853Z AUTO 32009KT 10SM BKN035 22/17 A2999 RMK AO2 SLP156 T02220167 56012

More Conditions Fewer Conditions

10-Day Weather Forecast

Almanac

Astronomy

Apr. 20, 2014 Rise Set
Actual Time 7:00 AM EDT 7:51 PM EDT
Civil Twilight 6:36 AM EDT 8:14 PM EDT
Nautical Twilight 6:09 AM EDT 8:42 PM EDT
Astronomical Twilight 5:41 AM EDT 9:10 PM EDT
Moon 12:17 AM EDT 11:31 AM EDT
Length of Visible Light 13h 37m
Length of Day
12h 50m
Tomorrow will be 1m 19s longer.
Waning Gibbous, 71% of the Moon is Illuminated
Today
Waning Gibbous
Apr 22
Last Quarter
Apr 29
New
May 6
First Quarter
May 14
Full

Today's Extremes

State Highs State Lows

Community

  • Sunny day at the coast-Cape Arago Lighthouse
    Sunny day at the coast-Cape Arago Lighthouse
  • Cherry Blossoms
    Cherry Blossoms
  • White-Crowned Sparrow
    White-Crowned Sparrow
  • New Day
    New Day
  • Happy Easter!
    Happy Easter!

WunderPhotos

Upload Photos

1,703,122 photos uploaded!

WunderBlogs® & News

Nearby

Snow Depth

Station Depth Elevation
No new snow has been reported.

Coastal Water Temperatures

Place Temperature
No Stations Reporting

Earthquake Activity

City Distance Mag. Time & Date
No recent earthquake activity has been reported nearby.
Minimum magnitude displayed is 2.5.

Nearby Weather Stations

Station Location Temp. Heat Index Dew Point Humidity Wind Precip. Elev Updated Type
Big Coppitt Key Gulfside, Key West, FL 72.7 °F 75 °F 63 °F 71% East  at  8.9 mph - / hr 31 ft 5:21 AM EDT Normal
Key West, FL 71.6 °F 73 °F 63 °F 75% NW  at  0.0 mph 0.00 in / hr 6 ft 5:21 AM EDT Normal
Cudjoe Key, FL 71.7 °F 74 °F 63 °F 73% West  at  11.0 mph 0.00 in / hr 16 ft 5:24 AM EDT Rapid Fire
Breezeswept Estates - Bird Lake - Ramrod, Ramrod Key, FL 72.1 °F 75 °F 62 °F 70% WNW  at  11.9 mph 0.00 in / hr 25 ft 5:24 AM EDT Rapid Fire

Show More Stations Show Fewer Stations

What do you think?

We're not finished. Please let us know what you like, what you don't like, and what you are still missing.